sensor_id;sensor_type;location;lat;lon;timestamp;temperature;humidity
7214;DHT22;3648;50.614;13.830;2022-08-19T00:01:20;23.50;1.00
7214;DHT22;3648;50.614;13.830;2022-08-19T00:03:48;23.50;1.00
7214;DHT22;3648;50.614;13.830;2022-08-19T00:06:15;23.50;1.00
7214;DHT22;3648;50.614;13.830;2022-08-19T00:08:42;23.50;1.00
7214;DHT22;3648;50.614;13.830;2022-08-19T00:11:11;23.40;1.00
7214;DHT22;3648;50.614;13.830;2022-08-19T00:13:39;23.40;1.00
7214;DHT22;3648;50.614;13.830;2022-08-19T00:16:07;23.30;1.00
7214;DHT22;3648;50.614;13.830;2022-08-19T00:18:34;23.40;1.00
7214;DHT22;3648;50.614;13.830;2022-08-19T00:21:01;23.30;1.00
7214;DHT22;3648;50.614;13.830;2022-08-19T00:23:33;23.30;1.00
7214;DHT22;3648;50.614;13.830;2022-08-19T00:26:02;23.20;1.00
7214;DHT22;3648;50.614;13.830;2022-08-19T00:28:30;23.10;1.00
7214;DHT22;3648;50.614;13.830;2022-08-19T00:30:58;23.10;1.00
7214;DHT22;3648;50.614;13.830;2022-08-19T00:33:25;23.20;1.00
7214;DHT22;3648;50.614;13.830;2022-08-19T00:35:54;23.10;1.00
7214;DHT22;3648;50.614;13.830;2022-08-19T00:38:21;23.10;1.00
7214;DHT22;3648;50.614;13.830;2022-08-19T00:40:48;23.00;1.00
7214;DHT22;3648;50.614;13.830;2022-08-19T00:43:19;23.00;1.00
7214;DHT22;3648;50.614;13.830;2022-08-19T00:45:48;23.00;1.00
7214;DHT22;3648;50.614;13.830;2022-08-19T00:48:16;22.90;1.00
7214;DHT22;3648;50.614;13.830;2022-08-19T00:50:44;22.80;1.00
7214;DHT22;3648;50.614;13.830;2022-08-19T00:53:12;22.80;1.00
7214;DHT22;3648;50.614;13.830;2022-08-19T00:55:42;22.70;1.00
7214;DHT22;3648;50.614;13.830;2022-08-19T00:58:13;22.60;1.00
7214;DHT22;3648;50.614;13.830;2022-08-19T01:00:41;22.40;1.00
7214;DHT22;3648;50.614;13.830;2022-08-19T01:03:11;22.40;1.00
7214;DHT22;3648;50.614;13.830;2022-08-19T01:05:41;22.40;1.00
7214;DHT22;3648;50.614;13.830;2022-08-19T01:08:08;22.40;1.00
7214;DHT22;3648;50.614;13.830;2022-08-19T01:10:39;22.40;1.00
7214;DHT22;3648;50.614;13.830;2022-08-19T01:13:08;22.30;1.00
7214;DHT22;3648;50.614;13.830;2022-08-19T01:15:41;22.20;1.00
7214;DHT22;3648;50.614;13.830;2022-08-19T01:18:12;22.20;1.00
7214;DHT22;3648;50.614;13.830;2022-08-19T01:20:43;22.20;1.00
7214;DHT22;3648;50.614;13.830;2022-08-19T01:23:12;22.20;1.00
7214;DHT22;3648;50.614;13.830;2022-08-19T01:25:44;22.10;1.00
7214;DHT22;3648;50.614;13.830;2022-08-19T01:28:16;22.10;1.00
7214;DHT22;3648;50.614;13.830;2022-08-19T01:30:43;22.00;1.00
7214;DHT22;3648;50.614;13.830;2022-08-19T01:33:11;22.00;1.00
7214;DHT22;3648;50.614;13.830;2022-08-19T01:35:41;22.00;1.00
7214;DHT22;3648;50.614;13.830;2022-08-19T01:38:18;22.00;1.00
7214;DHT22;3648;50.614;13.830;2022-08-19T01:40:47;21.90;1.00
7214;DHT22;3648;50.614;13.830;2022-08-19T01:43:13;21.90;1.00
7214;DHT22;3648;50.614;13.830;2022-08-19T01:45:41;21.90;1.00
7214;DHT22;3648;50.614;13.830;2022-08-19T01:48:08;21.80;1.00
7214;DHT22;3648;50.614;13.830;2022-08-19T01:50:35;21.80;1.00
7214;DHT22;3648;50.614;13.830;2022-08-19T01:53:05;21.70;1.00
7214;DHT22;3648;50.614;13.830;2022-08-19T01:55:34;21.70;1.00
7214;DHT22;3648;50.614;13.830;2022-08-19T01:58:06;21.70;1.00
7214;DHT22;3648;50.614;13.830;2022-08-19T02:00:34;21.60;1.00
7214;DHT22;3648;50.614;13.830;2022-08-19T02:03:01;21.60;1.00
7214;DHT22;3648;50.614;13.830;2022-08-19T02:05:28;21.60;1.00
7214;DHT22;3648;50.614;13.830;2022-08-19T02:07:55;21.50;1.00
7214;DHT22;3648;50.614;13.830;2022-08-19T02:10:23;21.50;1.00
7214;DHT22;3648;50.614;13.830;2022-08-19T02:12:52;21.60;1.00
7214;DHT22;3648;50.614;13.830;2022-08-19T02:15:21;21.60;1.00
7214;DHT22;3648;50.614;13.830;2022-08-19T02:17:48;21.60;1.00
7214;DHT22;3648;50.614;13.830;2022-08-19T02:20:16;21.60;1.00
7214;DHT22;3648;50.614;13.830;2022-08-19T02:22:43;21.60;1.00
7214;DHT22;3648;50.614;13.830;2022-08-19T02:25:11;21.60;1.00
7214;DHT22;3648;50.614;13.830;2022-08-19T02:27:39;21.60;1.00
7214;DHT22;3648;50.614;13.830;2022-08-19T02:30:09;21.60;1.00
7214;DHT22;3648;50.614;13.830;2022-08-19T02:32:38;21.70;1.00
7214;DHT22;3648;50.614;13.830;2022-08-19T02:35:06;21.60;1.00
7214;DHT22;3648;50.614;13.830;2022-08-19T02:37:34;21.60;1.00
7214;DHT22;3648;50.614;13.830;2022-08-19T02:40:18;21.70;1.00
7214;DHT22;3648;50.614;13.830;2022-08-19T02:42:45;21.70;1.00
7214;DHT22;3648;50.614;13.830;2022-08-19T02:45:13;21.60;1.00
7214;DHT22;3648;50.614;13.830;2022-08-19T02:47:42;21.70;1.00
7214;DHT22;3648;50.614;13.830;2022-08-19T02:50:09;21.70;1.00
7214;DHT22;3648;50.614;13.830;2022-08-19T02:52:36;21.70;1.00
7214;DHT22;3648;50.614;13.830;2022-08-19T02:55:05;21.70;1.00
7214;DHT22;3648;50.614;13.830;2022-08-19T02:57:32;21.70;1.00
7214;DHT22;3648;50.614;13.830;2022-08-19T02:59:59;21.60;1.00
7214;DHT22;3648;50.614;13.830;2022-08-19T03:02:27;21.60;1.00
7214;DHT22;3648;50.614;13.830;2022-08-19T03:04:55;21.60;1.00
7214;DHT22;3648;50.614;13.830;2022-08-19T03:07:22;21.60;1.00
7214;DHT22;3648;50.614;13.830;2022-08-19T03:09:49;21.60;1.00
7214;DHT22;3648;50.614;13.830;2022-08-19T03:12:16;21.60;1.00
7214;DHT22;3648;50.614;13.830;2022-08-19T03:14:43;21.60;1.00
7214;DHT22;3648;50.614;13.830;2022-08-19T03:17:11;21.60;1.00
7214;DHT22;3648;50.614;13.830;2022-08-19T03:19:38;21.60;1.00
7214;DHT22;3648;50.614;13.830;2022-08-19T03:22:06;21.60;1.00
7214;DHT22;3648;50.614;13.830;2022-08-19T03:24:33;21.60;1.00
7214;DHT22;3648;50.614;13.830;2022-08-19T03:27:00;21.60;1.00
7214;DHT22;3648;50.614;13.830;2022-08-19T03:29:30;21.70;1.00
7214;DHT22;3648;50.614;13.830;2022-08-19T03:31:58;21.60;1.00
7214;DHT22;3648;50.614;13.830;2022-08-19T03:34:28;21.70;1.00
7214;DHT22;3648;50.614;13.830;2022-08-19T03:36:58;21.60;1.00
7214;DHT22;3648;50.614;13.830;2022-08-19T03:39:27;21.60;1.00
7214;DHT22;3648;50.614;13.830;2022-08-19T03:41:54;21.60;1.00
7214;DHT22;3648;50.614;13.830;2022-08-19T03:44:23;21.60;1.00
7214;DHT22;3648;50.614;13.830;2022-08-19T03:46:55;21.60;1.00
7214;DHT22;3648;50.614;13.830;2022-08-19T03:49:23;21.50;1.00
7214;DHT22;3648;50.614;13.830;2022-08-19T03:51:50;21.40;1.00
7214;DHT22;3648;50.614;13.830;2022-08-19T03:54:19;21.40;1.00
7214;DHT22;3648;50.614;13.830;2022-08-19T03:56:51;21.40;1.00
7214;DHT22;3648;50.614;13.830;2022-08-19T03:59:23;21.40;1.00
7214;DHT22;3648;50.614;13.830;2022-08-19T04:01:51;21.40;1.00
7214;DHT22;3648;50.614;13.830;2022-08-19T04:04:18;21.30;1.00
7214;DHT22;3648;50.614;13.830;2022-08-19T04:06:45;21.40;1.00
7214;DHT22;3648;50.614;13.830;2022-08-19T04:09:13;21.30;1.00
7214;DHT22;3648;50.614;13.830;2022-08-19T04:11:42;21.30;1.00
7214;DHT22;3648;50.614;13.830;2022-08-19T04:14:13;21.30;1.00
7214;DHT22;3648;50.614;13.830;2022-08-19T04:16:41;21.30;1.00
7214;DHT22;3648;50.614;13.830;2022-08-19T04:19:10;21.30;1.00
7214;DHT22;3648;50.614;13.830;2022-08-19T04:21:37;21.40;1.00
7214;DHT22;3648;50.614;13.830;2022-08-19T04:24:04;21.40;1.00
7214;DHT22;3648;50.614;13.830;2022-08-19T04:26:34;21.40;1.00
7214;DHT22;3648;50.614;13.830;2022-08-19T04:29:05;21.50;1.00
7214;DHT22;3648;50.614;13.830;2022-08-19T04:31:33;21.50;1.00
7214;DHT22;3648;50.614;13.830;2022-08-19T04:34:03;21.50;1.00
7214;DHT22;3648;50.614;13.830;2022-08-19T04:36:35;21.50;1.00
7214;DHT22;3648;50.614;13.830;2022-08-19T04:39:04;21.50;1.00
7214;DHT22;3648;50.614;13.830;2022-08-19T04:41:32;21.50;1.00
7214;DHT22;3648;50.614;13.830;2022-08-19T04:44:17;21.60;1.00
7214;DHT22;3648;50.614;13.830;2022-08-19T04:46:46;21.60;1.00
7214;DHT22;3648;50.614;13.830;2022-08-19T04:49:14;21.60;1.00
7214;DHT22;3648;50.614;13.830;2022-08-19T04:51:43;21.70;1.00
7214;DHT22;3648;50.614;13.830;2022-08-19T04:54:11;21.70;1.00
7214;DHT22;3648;50.614;13.830;2022-08-19T04:56:39;21.70;1.00
7214;DHT22;3648;50.614;13.830;2022-08-19T04:59:07;21.80;1.00
7214;DHT22;3648;50.614;13.830;2022-08-19T05:01:36;21.80;1.00
7214;DHT22;3648;50.614;13.830;2022-08-19T05:04:06;21.80;1.00
7214;DHT22;3648;50.614;13.830;2022-08-19T05:06:34;21.80;1.00
7214;DHT22;3648;50.614;13.830;2022-08-19T05:09:04;21.90;1.00
7214;DHT22;3648;50.614;13.830;2022-08-19T05:11:34;21.90;1.00
7214;DHT22;3648;50.614;13.830;2022-08-19T05:14:02;22.00;1.00
7214;DHT22;3648;50.614;13.830;2022-08-19T05:16:29;22.00;1.00
7214;DHT22;3648;50.614;13.830;2022-08-19T05:18:56;22.00;1.00
7214;DHT22;3648;50.614;13.830;2022-08-19T05:21:43;22.00;1.00
7214;DHT22;3648;50.614;13.830;2022-08-19T05:24:28;22.10;1.00
7214;DHT22;3648;50.614;13.830;2022-08-19T05:26:56;22.10;1.00
7214;DHT22;3648;50.614;13.830;2022-08-19T05:29:26;22.00;1.00
7214;DHT22;3648;50.614;13.830;2022-08-19T05:31:54;22.10;1.00
7214;DHT22;3648;50.614;13.830;2022-08-19T05:34:23;22.00;1.00
7214;DHT22;3648;50.614;13.830;2022-08-19T05:36:53;22.00;1.00
7214;DHT22;3648;50.614;13.830;2022-08-19T05:39:23;22.00;1.00
7214;DHT22;3648;50.614;13.830;2022-08-19T05:41:52;22.00;1.00
7214;DHT22;3648;50.614;13.830;2022-08-19T05:44:20;22.00;1.00
7214;DHT22;3648;50.614;13.830;2022-08-19T05:46:48;22.00;1.00
7214;DHT22;3648;50.614;13.830;2022-08-19T05:49:20;21.90;1.00
7214;DHT22;3648;50.614;13.830;2022-08-19T05:51:47;22.00;1.00
7214;DHT22;3648;50.614;13.830;2022-08-19T05:54:16;21.90;1.00
7214;DHT22;3648;50.614;13.830;2022-08-19T05:56:43;22.00;1.00
7214;DHT22;3648;50.614;13.830;2022-08-19T05:59:14;22.00;1.00
7214;DHT22;3648;50.614;13.830;2022-08-19T06:01:44;22.00;1.00
7214;DHT22;3648;50.614;13.830;2022-08-19T06:04:12;21.90;1.00
7214;DHT22;3648;50.614;13.830;2022-08-19T06:06:40;21.80;1.00
7214;DHT22;3648;50.614;13.830;2022-08-19T06:09:07;21.70;1.00
7214;DHT22;3648;50.614;13.830;2022-08-19T06:11:40;21.80;1.00
7214;DHT22;3648;50.614;13.830;2022-08-19T06:14:11;21.80;1.00
7214;DHT22;3648;50.614;13.830;2022-08-19T06:16:40;21.80;1.00
7214;DHT22;3648;50.614;13.830;2022-08-19T06:19:09;21.70;1.00
7214;DHT22;3648;50.614;13.830;2022-08-19T06:21:38;21.70;1.00
7214;DHT22;3648;50.614;13.830;2022-08-19T06:24:08;21.70;1.00
7214;DHT22;3648;50.614;13.830;2022-08-19T06:26:39;21.80;1.00
7214;DHT22;3648;50.614;13.830;2022-08-19T06:29:07;21.80;1.00
7214;DHT22;3648;50.614;13.830;2022-08-19T06:31:35;21.90;1.00
7214;DHT22;3648;50.614;13.830;2022-08-19T06:34:05;21.80;1.00
7214;DHT22;3648;50.614;13.830;2022-08-19T06:36:34;21.90;1.00
7214;DHT22;3648;50.614;13.830;2022-08-19T06:39:05;21.80;1.00
7214;DHT22;3648;50.614;13.830;2022-08-19T06:41:38;21.90;1.00
7214;DHT22;3648;50.614;13.830;2022-08-19T06:44:06;21.90;1.00
7214;DHT22;3648;50.614;13.830;2022-08-19T06:46:33;22.00;1.00
7214;DHT22;3648;50.614;13.830;2022-08-19T06:49:00;22.00;1.00
7214;DHT22;3648;50.614;13.830;2022-08-19T06:51:27;22.00;1.00
7214;DHT22;3648;50.614;13.830;2022-08-19T06:53:55;22.10;1.00
7214;DHT22;3648;50.614;13.830;2022-08-19T06:56:24;22.10;1.00
7214;DHT22;3648;50.614;13.830;2022-08-19T06:58:57;22.10;1.00
7214;DHT22;3648;50.614;13.830;2022-08-19T07:01:25;22.20;1.00
7214;DHT22;3648;50.614;13.830;2022-08-19T07:03:52;22.20;1.00
7214;DHT22;3648;50.614;13.830;2022-08-19T07:06:20;22.30;1.00
7214;DHT22;3648;50.614;13.830;2022-08-19T07:08:47;22.40;1.00
7214;DHT22;3648;50.614;13.830;2022-08-19T07:11:17;22.50;1.00
7214;DHT22;3648;50.614;13.830;2022-08-19T07:13:45;22.50;1.00
7214;DHT22;3648;50.614;13.830;2022-08-19T07:16:17;22.50;1.00
7214;DHT22;3648;50.614;13.830;2022-08-19T07:18:46;22.60;1.00
7214;DHT22;3648;50.614;13.830;2022-08-19T07:21:15;22.50;1.00
7214;DHT22;3648;50.614;13.830;2022-08-19T07:23:43;22.50;1.00
7214;DHT22;3648;50.614;13.830;2022-08-19T07:26:13;22.50;1.00
7214;DHT22;3648;50.614;13.830;2022-08-19T07:28:41;22.50;1.00
7214;DHT22;3648;50.614;13.830;2022-08-19T07:31:11;22.50;1.00
7214;DHT22;3648;50.614;13.830;2022-08-19T07:33:40;22.40;1.00
7214;DHT22;3648;50.614;13.830;2022-08-19T07:36:09;22.40;1.00
7214;DHT22;3648;50.614;13.830;2022-08-19T07:38:39;22.40;1.00
7214;DHT22;3648;50.614;13.830;2022-08-19T07:41:06;22.40;1.00
7214;DHT22;3648;50.614;13.830;2022-08-19T07:43:33;22.40;1.00
7214;DHT22;3648;50.614;13.830;2022-08-19T07:46:00;22.50;1.00
7214;DHT22;3648;50.614;13.830;2022-08-19T07:48:28;22.50;1.00
7214;DHT22;3648;50.614;13.830;2022-08-19T07:50:59;22.50;1.00
7214;DHT22;3648;50.614;13.830;2022-08-19T07:53:28;22.60;1.00
7214;DHT22;3648;50.614;13.830;2022-08-19T07:55:56;22.70;1.00
7214;DHT22;3648;50.614;13.830;2022-08-19T07:58:30;22.70;1.00
7214;DHT22;3648;50.614;13.830;2022-08-19T08:00:58;22.70;1.00
7214;DHT22;3648;50.614;13.830;2022-08-19T08:03:26;22.70;1.00
7214;DHT22;3648;50.614;13.830;2022-08-19T08:06:10;22.70;1.00
7214;DHT22;3648;50.614;13.830;2022-08-19T08:08:54;22.80;1.00
7214;DHT22;3648;50.614;13.830;2022-08-19T08:11:48;22.80;1.00
7214;DHT22;3648;50.614;13.830;2022-08-19T08:14:17;22.90;1.00
7214;DHT22;3648;50.614;13.830;2022-08-19T08:16:45;23.00;1.00
7214;DHT22;3648;50.614;13.830;2022-08-19T08:19:13;23.10;1.00
7214;DHT22;3648;50.614;13.830;2022-08-19T08:21:42;23.20;1.00
7214;DHT22;3648;50.614;13.830;2022-08-19T08:24:10;23.20;1.00
7214;DHT22;3648;50.614;13.830;2022-08-19T08:26:38;23.30;1.00
7214;DHT22;3648;50.614;13.830;2022-08-19T08:29:06;23.30;1.00
7214;DHT22;3648;50.614;13.830;2022-08-19T08:31:39;23.40;1.00
7214;DHT22;3648;50.614;13.830;2022-08-19T08:34:07;23.50;1.00
7214;DHT22;3648;50.614;13.830;2022-08-19T08:36:37;23.60;1.00
7214;DHT22;3648;50.614;13.830;2022-08-19T08:39:09;23.70;1.00
7214;DHT22;3648;50.614;13.830;2022-08-19T08:41:42;23.80;1.00
7214;DHT22;3648;50.614;13.830;2022-08-19T08:44:15;23.90;1.00
7214;DHT22;3648;50.614;13.830;2022-08-19T08:46:47;24.00;1.00
7214;DHT22;3648;50.614;13.830;2022-08-19T08:49:24;23.90;1.00
7214;DHT22;3648;50.614;13.830;2022-08-19T08:51:59;23.90;1.00
7214;DHT22;3648;50.614;13.830;2022-08-19T08:54:33;24.00;1.00
7214;DHT22;3648;50.614;13.830;2022-08-19T08:57:03;24.00;1.00
7214;DHT22;3648;50.614;13.830;2022-08-19T08:59:35;24.10;1.00
7214;DHT22;3648;50.614;13.830;2022-08-19T09:02:03;24.20;1.00
7214;DHT22;3648;50.614;13.830;2022-08-19T09:04:30;24.20;1.00
7214;DHT22;3648;50.614;13.830;2022-08-19T09:07:06;24.30;1.00
7214;DHT22;3648;50.614;13.830;2022-08-19T09:09:43;24.30;1.00
7214;DHT22;3648;50.614;13.830;2022-08-19T09:12:14;24.30;1.00
7214;DHT22;3648;50.614;13.830;2022-08-19T09:14:49;24.40;1.00
7214;DHT22;3648;50.614;13.830;2022-08-19T09:17:22;24.50;1.00
7214;DHT22;3648;50.614;13.830;2022-08-19T09:19:57;24.60;1.00
7214;DHT22;3648;50.614;13.830;2022-08-19T09:22:26;24.70;1.00
7214;DHT22;3648;50.614;13.830;2022-08-19T09:24:55;24.80;1.00
7214;DHT22;3648;50.614;13.830;2022-08-19T09:27:24;24.90;1.00
7214;DHT22;3648;50.614;13.830;2022-08-19T09:29:51;25.00;1.00
7214;DHT22;3648;50.614;13.830;2022-08-19T09:32:19;25.10;1.00
7214;DHT22;3648;50.614;13.830;2022-08-19T09:34:46;25.20;1.00
7214;DHT22;3648;50.614;13.830;2022-08-19T09:37:14;25.20;1.00
7214;DHT22;3648;50.614;13.830;2022-08-19T09:39:41;25.30;1.00
7214;DHT22;3648;50.614;13.830;2022-08-19T09:42:09;25.40;1.00
7214;DHT22;3648;50.614;13.830;2022-08-19T09:44:38;25.50;1.00
7214;DHT22;3648;50.614;13.830;2022-08-19T09:47:05;25.50;1.00
7214;DHT22;3648;50.614;13.830;2022-08-19T09:49:33;25.60;1.00
7214;DHT22;3648;50.614;13.830;2022-08-19T09:52:00;25.80;1.00
7214;DHT22;3648;50.614;13.830;2022-08-19T09:54:27;25.70;1.00
7214;DHT22;3648;50.614;13.830;2022-08-19T09:56:55;25.70;1.00
7214;DHT22;3648;50.614;13.830;2022-08-19T09:59:23;25.60;1.00
7214;DHT22;3648;50.614;13.830;2022-08-19T10:01:50;25.80;1.00
7214;DHT22;3648;50.614;13.830;2022-08-19T10:04:18;25.80;1.00
7214;DHT22;3648;50.614;13.830;2022-08-19T10:06:45;25.80;1.00
7214;DHT22;3648;50.614;13.830;2022-08-19T10:09:14;25.80;1.00
7214;DHT22;3648;50.614;13.830;2022-08-19T10:11:43;25.70;1.00
7214;DHT22;3648;50.614;13.830;2022-08-19T10:14:11;25.70;1.00
7214;DHT22;3648;50.614;13.830;2022-08-19T10:16:39;25.70;1.00
7214;DHT22;3648;50.614;13.830;2022-08-19T10:19:07;25.70;1.00
7214;DHT22;3648;50.614;13.830;2022-08-19T10:21:36;25.70;1.00
7214;DHT22;3648;50.614;13.830;2022-08-19T10:24:05;25.60;1.00
7214;DHT22;3648;50.614;13.830;2022-08-19T10:26:34;25.60;1.00
7214;DHT22;3648;50.614;13.830;2022-08-19T10:29:04;25.50;1.00
7214;DHT22;3648;50.614;13.830;2022-08-19T10:31:32;25.40;1.00
7214;DHT22;3648;50.614;13.830;2022-08-19T10:34:01;25.40;1.00
7214;DHT22;3648;50.614;13.830;2022-08-19T10:36:30;25.40;1.00
7214;DHT22;3648;50.614;13.830;2022-08-19T10:38:59;25.40;1.00
7214;DHT22;3648;50.614;13.830;2022-08-19T10:41:29;25.40;1.00
7214;DHT22;3648;50.614;13.830;2022-08-19T10:43:58;25.30;1.00
7214;DHT22;3648;50.614;13.830;2022-08-19T10:46:27;25.30;1.00
7214;DHT22;3648;50.614;13.830;2022-08-19T10:48:59;25.30;1.00
7214;DHT22;3648;50.614;13.830;2022-08-19T10:51:29;25.20;1.00
7214;DHT22;3648;50.614;13.830;2022-08-19T10:54:14;25.20;1.00
7214;DHT22;3648;50.614;13.830;2022-08-19T10:56:41;25.20;1.00
7214;DHT22;3648;50.614;13.830;2022-08-19T10:59:18;25.20;1.00
7214;DHT22;3648;50.614;13.830;2022-08-19T11:01:46;25.10;1.00
7214;DHT22;3648;50.614;13.830;2022-08-19T11:04:14;25.10;1.00
7214;DHT22;3648;50.614;13.830;2022-08-19T11:06:45;25.10;1.00
7214;DHT22;3648;50.614;13.830;2022-08-19T11:09:14;25.00;1.00
7214;DHT22;3648;50.614;13.830;2022-08-19T11:11:42;25.10;1.00
7214;DHT22;3648;50.614;13.830;2022-08-19T11:14:11;25.10;1.00
7214;DHT22;3648;50.614;13.830;2022-08-19T11:16:39;25.10;1.00
7214;DHT22;3648;50.614;13.830;2022-08-19T11:19:09;25.00;1.00
7214;DHT22;3648;50.614;13.830;2022-08-19T11:21:39;25.00;1.00
7214;DHT22;3648;50.614;13.830;2022-08-19T11:24:11;25.00;1.00
7214;DHT22;3648;50.614;13.830;2022-08-19T11:26:39;25.00;1.00
7214;DHT22;3648;50.614;13.830;2022-08-19T11:29:08;25.00;1.00
7214;DHT22;3648;50.614;13.830;2022-08-19T11:31:39;25.00;1.00
7214;DHT22;3648;50.614;13.830;2022-08-19T11:34:14;24.90;1.00
7214;DHT22;3648;50.614;13.830;2022-08-19T11:36:44;24.90;1.00
7214;DHT22;3648;50.614;13.830;2022-08-19T11:39:15;24.90;1.00
7214;DHT22;3648;50.614;13.830;2022-08-19T11:41:43;24.90;1.00
7214;DHT22;3648;50.614;13.830;2022-08-19T11:44:10;24.90;1.00
7214;DHT22;3648;50.614;13.830;2022-08-19T11:46:40;24.90;1.00
7214;DHT22;3648;50.614;13.830;2022-08-19T11:49:11;24.90;1.00
7214;DHT22;3648;50.614;13.830;2022-08-19T11:51:39;24.90;1.00
7214;DHT22;3648;50.614;13.830;2022-08-19T11:54:07;24.90;1.00
7214;DHT22;3648;50.614;13.830;2022-08-19T11:56:37;24.90;1.00
7214;DHT22;3648;50.614;13.830;2022-08-19T11:59:04;24.90;1.00
7214;DHT22;3648;50.614;13.830;2022-08-19T12:01:31;24.80;1.00
7214;DHT22;3648;50.614;13.830;2022-08-19T12:03:59;24.90;1.00
7214;DHT22;3648;50.614;13.830;2022-08-19T12:06:29;24.90;1.00
7214;DHT22;3648;50.614;13.830;2022-08-19T12:08:58;24.90;1.00
7214;DHT22;3648;50.614;13.830;2022-08-19T12:11:26;24.90;1.00
7214;DHT22;3648;50.614;13.830;2022-08-19T12:13:55;24.90;1.00
7214;DHT22;3648;50.614;13.830;2022-08-19T12:16:25;24.90;1.00
7214;DHT22;3648;50.614;13.830;2022-08-19T12:18:54;24.80;1.00
7214;DHT22;3648;50.614;13.830;2022-08-19T12:21:24;24.80;1.00
7214;DHT22;3648;50.614;13.830;2022-08-19T12:23:55;24.80;1.00
7214;DHT22;3648;50.614;13.830;2022-08-19T12:26:22;24.80;1.00
7214;DHT22;3648;50.614;13.830;2022-08-19T12:28:50;24.80;1.00
7214;DHT22;3648;50.614;13.830;2022-08-19T12:31:18;24.80;1.00
7214;DHT22;3648;50.614;13.830;2022-08-19T12:33:46;24.80;1.00
7214;DHT22;3648;50.614;13.830;2022-08-19T12:36:15;24.80;1.00
7214;DHT22;3648;50.614;13.830;2022-08-19T12:38:43;24.80;1.00
7214;DHT22;3648;50.614;13.830;2022-08-19T12:41:12;24.90;1.00
7214;DHT22;3648;50.614;13.830;2022-08-19T12:43:40;24.90;1.00
7214;DHT22;3648;50.614;13.830;2022-08-19T12:46:09;24.90;1.00
7214;DHT22;3648;50.614;13.830;2022-08-19T12:48:38;24.90;1.00
7214;DHT22;3648;50.614;13.830;2022-08-19T12:51:10;25.00;1.00
7214;DHT22;3648;50.614;13.830;2022-08-19T12:53:38;25.00;1.00
7214;DHT22;3648;50.614;13.830;2022-08-19T12:56:05;25.10;1.00
7214;DHT22;3648;50.614;13.830;2022-08-19T12:58:33;25.20;1.00
7214;DHT22;3648;50.614;13.830;2022-08-19T13:01:06;25.30;1.00
7214;DHT22;3648;50.614;13.830;2022-08-19T13:03:33;25.30;1.00
7214;DHT22;3648;50.614;13.830;2022-08-19T13:06:02;25.30;1.00
7214;DHT22;3648;50.614;13.830;2022-08-19T13:08:30;25.40;1.00
7214;DHT22;3648;50.614;13.830;2022-08-19T13:10:57;25.40;1.00
7214;DHT22;3648;50.614;13.830;2022-08-19T13:13:32;25.50;1.00
7214;DHT22;3648;50.614;13.830;2022-08-19T13:16:00;25.60;1.00
7214;DHT22;3648;50.614;13.830;2022-08-19T13:18:28;25.70;1.00
7214;DHT22;3648;50.614;13.830;2022-08-19T13:20:57;25.70;1.00
7214;DHT22;3648;50.614;13.830;2022-08-19T13:23:25;25.70;1.00
7214;DHT22;3648;50.614;13.830;2022-08-19T13:25:56;25.70;1.00
7214;DHT22;3648;50.614;13.830;2022-08-19T13:28:24;25.80;1.00
7214;DHT22;3648;50.614;13.830;2022-08-19T13:30:51;25.90;1.00
7214;DHT22;3648;50.614;13.830;2022-08-19T13:33:44;25.80;1.00
7214;DHT22;3648;50.614;13.830;2022-08-19T13:36:12;25.90;1.00
7214;DHT22;3648;50.614;13.830;2022-08-19T13:38:40;25.90;1.00
7214;DHT22;3648;50.614;13.830;2022-08-19T13:41:07;25.90;1.00
7214;DHT22;3648;50.614;13.830;2022-08-19T13:43:35;26.00;1.00
7214;DHT22;3648;50.614;13.830;2022-08-19T13:46:09;25.90;1.00
7214;DHT22;3648;50.614;13.830;2022-08-19T13:48:39;25.90;1.00
7214;DHT22;3648;50.614;13.830;2022-08-19T13:51:06;26.00;1.00
7214;DHT22;3648;50.614;13.830;2022-08-19T13:53:36;26.00;1.00
7214;DHT22;3648;50.614;13.830;2022-08-19T13:56:07;26.10;1.00
7214;DHT22;3648;50.614;13.830;2022-08-19T13:58:35;26.10;1.00
7214;DHT22;3648;50.614;13.830;2022-08-19T14:01:03;26.10;1.00
7214;DHT22;3648;50.614;13.830;2022-08-19T14:03:31;26.10;1.00
7214;DHT22;3648;50.614;13.830;2022-08-19T14:05:58;26.10;1.00
7214;DHT22;3648;50.614;13.830;2022-08-19T14:08:26;26.10;1.00
7214;DHT22;3648;50.614;13.830;2022-08-19T14:10:53;26.10;1.00
7214;DHT22;3648;50.614;13.830;2022-08-19T14:13:23;26.00;1.00
7214;DHT22;3648;50.614;13.830;2022-08-19T14:15:50;26.00;1.00
7214;DHT22;3648;50.614;13.830;2022-08-19T14:18:19;25.90;1.00
7214;DHT22;3648;50.614;13.830;2022-08-19T14:20:46;25.90;1.00
7214;DHT22;3648;50.614;13.830;2022-08-19T14:23:13;25.80;1.00
7214;DHT22;3648;50.614;13.830;2022-08-19T14:25:40;25.70;1.00
7214;DHT22;3648;50.614;13.830;2022-08-19T14:28:07;25.60;1.00
7214;DHT22;3648;50.614;13.830;2022-08-19T14:30:36;25.50;1.00
7214;DHT22;3648;50.614;13.830;2022-08-19T14:33:05;25.40;1.00
7214;DHT22;3648;50.614;13.830;2022-08-19T14:35:33;25.30;1.00
7214;DHT22;3648;50.614;13.830;2022-08-19T14:38:01;25.30;1.00
7214;DHT22;3648;50.614;13.830;2022-08-19T14:40:30;25.20;1.00
7214;DHT22;3648;50.614;13.830;2022-08-19T14:42:58;25.20;1.00
7214;DHT22;3648;50.614;13.830;2022-08-19T14:45:30;25.20;1.00
7214;DHT22;3648;50.614;13.830;2022-08-19T14:47:58;25.20;1.00
7214;DHT22;3648;50.614;13.830;2022-08-19T14:50:26;25.30;1.00
7214;DHT22;3648;50.614;13.830;2022-08-19T14:52:58;25.40;1.00
7214;DHT22;3648;50.614;13.830;2022-08-19T14:55:26;25.50;1.00
7214;DHT22;3648;50.614;13.830;2022-08-19T14:57:54;25.60;1.00
7214;DHT22;3648;50.614;13.830;2022-08-19T15:00:22;25.60;1.00
7214;DHT22;3648;50.614;13.830;2022-08-19T15:02:50;25.60;1.00
7214;DHT22;3648;50.614;13.830;2022-08-19T15:05:21;25.60;1.00
7214;DHT22;3648;50.614;13.830;2022-08-19T15:07:48;25.60;1.00
7214;DHT22;3648;50.614;13.830;2022-08-19T15:10:15;25.60;1.00
7214;DHT22;3648;50.614;13.830;2022-08-19T15:12:42;25.70;1.00
7214;DHT22;3648;50.614;13.830;2022-08-19T15:15:11;25.70;1.00
7214;DHT22;3648;50.614;13.830;2022-08-19T15:17:39;25.80;1.00
7214;DHT22;3648;50.614;13.830;2022-08-19T15:20:08;25.80;1.00
7214;DHT22;3648;50.614;13.830;2022-08-19T15:22:37;25.80;1.00
7214;DHT22;3648;50.614;13.830;2022-08-19T15:25:05;25.90;1.00
7214;DHT22;3648;50.614;13.830;2022-08-19T15:27:32;26.00;1.00
7214;DHT22;3648;50.614;13.830;2022-08-19T15:30:00;26.00;1.00
7214;DHT22;3648;50.614;13.830;2022-08-19T15:32:27;26.10;1.00
7214;DHT22;3648;50.614;13.830;2022-08-19T15:34:54;26.00;1.00
7214;DHT22;3648;50.614;13.830;2022-08-19T15:37:22;25.90;1.00
7214;DHT22;3648;50.614;13.830;2022-08-19T15:39:51;25.90;1.00
7214;DHT22;3648;50.614;13.830;2022-08-19T15:42:18;25.90;1.00
7214;DHT22;3648;50.614;13.830;2022-08-19T15:44:45;25.80;1.00
7214;DHT22;3648;50.614;13.830;2022-08-19T15:47:13;25.90;1.00
7214;DHT22;3648;50.614;13.830;2022-08-19T15:49:40;25.90;1.00
7214;DHT22;3648;50.614;13.830;2022-08-19T15:52:07;25.90;1.00
7214;DHT22;3648;50.614;13.830;2022-08-19T15:54:34;25.90;1.00
7214;DHT22;3648;50.614;13.830;2022-08-19T15:57:03;25.90;1.00
7214;DHT22;3648;50.614;13.830;2022-08-19T15:59:48;25.80;1.00
7214;DHT22;3648;50.614;13.830;2022-08-19T16:02:32;25.80;1.00
7214;DHT22;3648;50.614;13.830;2022-08-19T16:05:22;25.60;1.00
7214;DHT22;3648;50.614;13.830;2022-08-19T16:08:06;25.60;1.00
7214;DHT22;3648;50.614;13.830;2022-08-19T16:10:35;25.50;1.00
7214;DHT22;3648;50.614;13.830;2022-08-19T16:13:04;25.50;1.00
7214;DHT22;3648;50.614;13.830;2022-08-19T16:15:32;25.60;1.00